createdAt,value
2014-08-22T00:00:47.468Z,15.5
2014-08-22T00:01:52.143Z,15.76
2014-08-22T00:02:56.819Z,16
2014-08-22T00:04:01.510Z,15.96
2014-08-22T00:05:06.184Z,15.88
2014-08-22T00:06:10.859Z,15.9
2014-08-22T00:07:15.549Z,15.77
2014-08-22T00:08:20.520Z,15.93
2014-08-22T00:09:25.507Z,15.95
2014-08-22T00:10:30.180Z,15.91
2014-08-22T00:11:34.855Z,15.65
2014-08-22T00:12:39.544Z,15.71
2014-08-22T00:13:44.217Z,16
2014-08-22T00:14:48.892Z,15.9
2014-08-22T00:15:53.862Z,15.57
2014-08-22T00:16:58.849Z,15.37
2014-08-22T00:18:02.835Z,15.19
2014-08-22T00:19:07.525Z,15.44
2014-08-22T00:20:12.199Z,15.31
2014-08-22T00:21:16.888Z,15.5
2014-08-22T00:22:21.562Z,15.5
2014-08-22T00:23:26.252Z,15.3
2014-08-22T00:24:30.926Z,15.47
2014-08-22T00:25:35.912Z,15.57
2014-08-22T00:26:40.883Z,15.6
2014-08-22T00:27:45.572Z,15.66
2014-08-22T00:28:50.263Z,15.44
2014-08-22T00:29:55.232Z,15.24
2014-08-22T00:30:59.923Z,15.22
2014-08-22T00:32:04.597Z,15.14
2014-08-22T00:33:09.583Z,15.13
2014-08-22T00:34:14.256Z,15.24
2014-08-22T00:35:18.946Z,15.6
2014-08-22T00:36:23.619Z,15.66
2014-08-22T00:37:28.591Z,15.8
2014-08-22T00:38:33.578Z,15.76
2014-08-22T00:39:38.252Z,15.84
2014-08-22T00:40:42.942Z,15.83
2014-08-22T00:41:47.617Z,15.9
2014-08-22T00:42:52.291Z,15.88
2014-08-22T00:43:57.293Z,15.85
2014-08-22T00:45:01.967Z,15.86
2014-08-22T00:46:06.640Z,15.77
2014-08-22T00:47:11.330Z,15.58
2014-08-22T00:48:16.004Z,15.31
2014-08-22T00:49:20.677Z,15.12
2014-08-22T00:50:25.367Z,15.02
2014-08-22T00:51:30.041Z,15.09
2014-08-22T00:52:34.715Z,15.44
2014-08-22T00:53:39.404Z,15.71
2014-08-22T00:54:44.079Z,15.8
2014-08-22T00:55:49.066Z,15.78
2014-08-22T00:56:53.740Z,15.57
2014-08-22T00:57:58.429Z,14.95
2014-08-22T00:59:03.400Z,15.04
2014-08-22T01:00:08.074Z,14.96
2014-08-22T01:01:12.763Z,14.88
2014-08-22T01:02:17.437Z,14.94
2014-08-22T01:03:22.127Z,15.05
2014-08-22T01:04:26.800Z,15.36
2014-08-22T01:05:31.490Z,15.56
2014-08-22T01:06:36.164Z,15.2
2014-08-22T01:07:40.853Z,15.08
2014-08-22T01:08:45.543Z,15.47
2014-08-22T01:09:50.217Z,15.64
2014-08-22T01:10:54.906Z,15.8
2014-08-22T01:11:59.894Z,15.81
2014-08-22T01:13:04.864Z,15.46
2014-08-22T01:14:09.851Z,15.38
2014-08-22T01:15:14.525Z,15.25
2014-08-22T01:16:19.213Z,15.14
2014-08-22T01:17:23.887Z,15.34
2014-08-22T01:18:28.576Z,15.66
2014-08-22T01:19:33.548Z,15.72
2014-08-22T01:20:38.222Z,15.9
2014-08-22T01:21:42.912Z,15.82
2014-08-22T01:22:47.585Z,15.54
2014-08-22T01:23:52.258Z,15.66
2014-08-22T01:24:56.949Z,15.65
2014-08-22T01:26:01.623Z,15.67
2014-08-22T01:27:06.297Z,15.84
2014-08-22T01:28:10.986Z,15.95
2014-08-22T01:29:15.660Z,15.43
2014-08-22T01:30:20.632Z,15.2
2014-08-22T01:31:25.321Z,15.27
2014-08-22T01:32:29.994Z,15.49
2014-08-22T01:33:34.980Z,15.5
2014-08-22T01:34:39.654Z,15.44
2014-08-22T01:35:44.626Z,15.43
2014-08-22T01:36:49.315Z,15.42
2014-08-22T01:37:53.988Z,15.45
2014-08-22T01:38:58.679Z,15.43
2014-08-22T01:40:03.352Z,15.51
2014-08-22T01:41:08.324Z,15.53
2014-08-22T01:42:13.013Z,15.38
2014-08-22T01:43:17.984Z,15.46
2014-08-22T01:44:22.673Z,15.48
2014-08-22T01:45:27.347Z,15.43
2014-08-22T01:46:32.334Z,15.66
2014-08-22T01:47:37.304Z,15.56
2014-08-22T01:48:42.292Z,15.77
2014-08-22T01:49:46.980Z,15.86
2014-08-22T01:50:51.655Z,15.7
2014-08-22T01:51:56.641Z,15.62
2014-08-22T01:53:01.315Z,15.4
2014-08-22T01:54:05.989Z,15.28
2014-08-22T01:55:10.976Z,15.4
2014-08-22T01:56:15.665Z,15.3
2014-08-22T01:57:20.340Z,15.5
2014-08-22T01:58:25.013Z,15.57
2014-08-22T01:59:29.702Z,15.66
2014-08-22T02:00:34.376Z,15.68
2014-08-22T02:01:39.067Z,15.7
2014-08-22T02:02:43.740Z,15.12
2014-08-22T02:03:48.414Z,15.12
2014-08-22T02:04:52.415Z,15.08
2014-08-22T02:05:57.089Z,15.34
2014-08-22T02:07:01.779Z,15.46
2014-08-22T02:08:06.751Z,15.55
2014-08-22T02:09:11.720Z,15.54
2014-08-22T02:10:16.411Z,15.62
2014-08-22T02:11:21.084Z,15.45
2014-08-22T02:12:25.773Z,15.26
2014-08-22T02:13:30.447Z,15.1
2014-08-22T02:14:35.138Z,15.06
2014-08-22T02:15:39.811Z,15.31
2014-08-22T02:16:44.484Z,15.53
2014-08-22T02:17:49.175Z,15.54
2014-08-22T02:18:53.849Z,15.57
2014-08-22T02:19:58.538Z,15.52
2014-08-22T02:21:03.211Z,15.54
2014-08-22T02:22:07.902Z,15.45
2014-08-22T02:23:12.888Z,15.44
2014-08-22T02:24:17.593Z,15.54
2014-08-22T02:25:22.267Z,15.49
2014-08-22T02:26:26.957Z,15.48
2014-08-22T02:27:31.927Z,15.44
2014-08-22T02:28:36.618Z,15.46
2014-08-22T02:29:41.306Z,15.5
2014-08-22T02:30:45.996Z,15.15
2014-08-22T02:31:50.983Z,15.02
2014-08-22T02:32:55.656Z,15.08
2014-08-22T02:34:00.346Z,14.96
2014-08-22T02:35:05.019Z,14.88
2014-08-22T02:36:10.007Z,14.88
2014-08-22T02:37:14.682Z,14.73
2014-08-22T02:38:19.371Z,14.84
2014-08-22T02:39:24.045Z,14.92
2014-08-22T02:40:28.720Z,14.9
2014-08-22T02:41:33.408Z,14.87
2014-08-22T02:42:38.082Z,14.92
2014-08-22T02:43:43.070Z,14.9
2014-08-22T02:44:48.039Z,14.96
2014-08-22T02:45:53.011Z,14.89
2014-08-22T02:46:57.701Z,14.86
2014-08-22T02:48:02.374Z,15.15
2014-08-22T02:49:07.344Z,15.14
2014-08-22T02:50:12.035Z,14.77
2014-08-22T02:51:16.709Z,15
2014-08-22T02:52:21.382Z,15.12
2014-08-22T02:53:26.072Z,15.24
2014-08-22T02:54:31.043Z,15.17
2014-08-22T02:55:36.029Z,15.38
2014-08-22T02:56:40.703Z,15.41
2014-08-22T02:57:45.377Z,15.16
2014-08-22T02:58:50.364Z,15.42
2014-08-22T02:59:55.038Z,15.48
2014-08-22T03:00:59.727Z,15.46
2014-08-22T03:02:04.400Z,15.64
2014-08-22T03:03:09.387Z,15.58
2014-08-22T03:04:14.359Z,15.61
2014-08-22T03:05:19.064Z,15.56
2014-08-22T03:06:23.752Z,15.57
2014-08-22T03:07:28.724Z,15.51
2014-08-22T03:08:33.413Z,15.24
2014-08-22T03:09:38.103Z,15.32
2014-08-22T03:10:43.074Z,15.37
2014-08-22T03:11:48.060Z,15.23
2014-08-22T03:12:52.734Z,15.29
2014-08-22T03:13:57.423Z,15.19
2014-08-22T03:15:02.097Z,15.14
2014-08-22T03:16:06.802Z,15.22
2014-08-22T03:17:11.789Z,15.35
2014-08-22T03:18:16.760Z,15.1
2014-08-22T03:19:21.433Z,15.01
2014-08-22T03:20:26.108Z,15.21
2014-08-22T03:21:30.797Z,15.26
2014-08-22T03:22:35.472Z,15.4
2014-08-22T03:23:39.474Z,15.32
2014-08-22T03:24:44.443Z,15.02
2014-08-22T03:25:49.431Z,15.04
2014-08-22T03:26:54.402Z,15.2
2014-08-22T03:27:59.388Z,15.06
2014-08-22T03:29:04.062Z,15.22
2014-08-22T03:30:08.751Z,15.24
2014-08-22T03:31:13.752Z,15.23
2014-08-22T03:32:18.427Z,15.1
2014-08-22T03:33:23.101Z,15.12
2014-08-22T03:34:27.791Z,15.25
2014-08-22T03:35:32.464Z,15.22
2014-08-22T03:36:37.138Z,15.03
2014-08-22T03:37:41.828Z,14.98
2014-08-22T03:38:46.799Z,15.14
2014-08-22T03:39:51.472Z,15.14
2014-08-22T03:40:56.162Z,15.23
2014-08-22T03:42:01.133Z,15.26
2014-08-22T03:43:06.119Z,15.24
2014-08-22T03:44:11.090Z,15.3
2014-08-22T03:45:15.764Z,15.24
2014-08-22T03:46:20.766Z,15.21
2014-08-22T03:47:24.752Z,15.1
2014-08-22T03:48:29.443Z,15.19
2014-08-22T03:49:34.413Z,15.18
2014-08-22T03:50:39.400Z,15.26
2014-08-22T03:51:44.369Z,15.28
2014-08-22T03:52:49.076Z,15.12
2014-08-22T03:53:54.359Z,15.34
2014-08-22T03:54:59.033Z,15.34
2014-08-22T03:56:03.723Z,15.3
2014-08-22T03:57:08.711Z,15.12
2014-08-22T03:58:13.680Z,15
2014-08-22T03:59:18.355Z,15.07
2014-08-22T04:00:23.045Z,15.12
2014-08-22T04:01:27.327Z,15.18
2014-08-22T04:02:32.016Z,14.9
2014-08-22T04:03:37.004Z,15.06
2014-08-22T04:04:41.975Z,15.13
2014-08-22T04:05:46.648Z,15.37
2014-08-22T04:06:51.338Z,15.45
2014-08-22T04:07:56.012Z,15.62
2014-08-22T04:09:00.998Z,15.32
2014-08-22T04:10:05.969Z,14.91
2014-08-22T04:11:10.658Z,14.88
2014-08-22T04:12:15.332Z,15.29
2014-08-22T04:13:20.022Z,15.28
2014-08-22T04:14:24.697Z,15.28
2014-08-22T04:15:29.371Z,15.4
2014-08-22T04:16:34.043Z,15.4
2014-08-22T04:17:38.733Z,15.37
2014-08-22T04:18:43.704Z,15.2
2014-08-22T04:19:48.378Z,14.9
2014-08-22T04:20:53.051Z,15.04
2014-08-22T04:21:57.742Z,15.1
2014-08-22T04:23:02.416Z,15.02
2014-08-22T04:24:07.105Z,14.94
2014-08-22T04:25:11.091Z,15.02
2014-08-22T04:26:15.781Z,14.86
2014-08-22T04:27:20.455Z,14.9
2014-08-22T04:28:25.738Z,15.14
2014-08-22T04:29:30.709Z,15.06
2014-08-22T04:30:35.399Z,14.77
2014-08-22T04:31:40.072Z,14.6
2014-08-22T04:32:44.763Z,14.52
2014-08-22T04:33:49.437Z,14.6
2014-08-22T04:34:54.126Z,14.42
2014-08-22T04:35:58.800Z,14.55
2014-08-22T04:37:03.490Z,14.56
2014-08-22T04:38:08.164Z,14.6
2014-08-22T04:39:13.150Z,15.03
2014-08-22T04:40:18.121Z,15.06
2014-08-22T04:41:22.795Z,14.87
2014-08-22T04:42:27.781Z,14.92
2014-08-22T04:43:32.455Z,14.96
2014-08-22T04:44:37.426Z,14.98
2014-08-22T04:45:42.115Z,14.73
2014-08-22T04:46:46.805Z,14.77
2014-08-22T04:47:51.775Z,14.8
2014-08-22T04:48:56.449Z,14.87
2014-08-22T04:50:01.139Z,14.56
2014-08-22T04:51:05.813Z,14.7
2014-08-22T04:52:10.503Z,14.86
2014-08-22T04:53:15.176Z,15.05
2014-08-22T04:54:20.148Z,15.02
2014-08-22T04:55:25.134Z,15.17
2014-08-22T04:56:29.808Z,15.34
2014-08-22T04:57:34.482Z,15.18
2014-08-22T04:58:39.171Z,14.88
2014-08-22T04:59:44.142Z,14.74
2014-08-22T05:00:49.113Z,14.81
2014-08-22T05:01:53.802Z,14.76
2014-08-22T05:02:58.476Z,14.64
2014-08-22T05:04:03.463Z,14.57
2014-08-22T05:05:08.136Z,14.8
2014-08-22T05:06:13.123Z,15.04
2014-08-22T05:07:17.797Z,15.1
2014-08-22T05:08:22.471Z,14.82
2014-08-22T05:09:27.457Z,14.92
2014-08-22T05:10:32.429Z,14.9
2014-08-22T05:11:37.118Z,14.84
2014-08-22T05:12:42.088Z,14.82
2014-08-22T05:13:47.075Z,14.69
2014-08-22T05:14:51.764Z,14.84
2014-08-22T05:15:56.438Z,15.06
2014-08-22T05:17:01.127Z,14.7
2014-08-22T05:18:05.801Z,15.06
2014-08-22T05:19:10.787Z,15.32
2014-08-22T05:20:15.462Z,15.48
2014-08-22T05:21:20.136Z,15.55
2014-08-22T05:22:24.826Z,15.61
2014-08-22T05:23:29.501Z,15.3
2014-08-22T05:24:34.487Z,15.65
2014-08-22T05:25:39.161Z,15.83
2014-08-22T05:26:43.836Z,16.1
2014-08-22T05:27:48.525Z,16.3
2014-08-22T05:28:53.214Z,16.05
2014-08-22T05:29:57.889Z,16.1
2014-08-22T05:31:02.578Z,16.62
2014-08-22T05:32:07.251Z,16.31
2014-08-22T05:33:12.238Z,15.99
2014-08-22T05:34:16.912Z,16
2014-08-22T05:35:21.586Z,16.39
2014-08-22T05:36:26.276Z,17.82
2014-08-22T05:37:30.949Z,17.46
2014-08-22T05:38:35.639Z,17.47
2014-08-22T05:39:40.313Z,17.14
2014-08-22T05:40:45.002Z,17.44
2014-08-22T05:41:49.301Z,17.43
2014-08-22T05:42:53.975Z,16.84
2014-08-22T05:43:58.665Z,16.22
2014-08-22T05:45:03.339Z,16.03
2014-08-22T05:46:08.325Z,15.98
2014-08-22T05:47:13.297Z,16.03
2014-08-22T05:48:18.282Z,16.24
2014-08-22T05:49:23.268Z,16.28
2014-08-22T05:50:27.943Z,16.24
2014-08-22T05:51:32.647Z,16.22
2014-08-22T05:52:37.322Z,15.39
2014-08-22T05:53:42.309Z,15.33
2014-08-22T05:54:46.982Z,15.36
2014-08-22T05:55:51.672Z,15.48
2014-08-22T05:56:56.658Z,15.63
2014-08-22T05:58:01.348Z,15.54
2014-08-22T05:59:06.023Z,15.24
2014-08-22T06:00:10.696Z,15.63
2014-08-22T06:01:15.370Z,15.76
2014-08-22T06:02:20.059Z,15.68
2014-08-22T06:03:24.734Z,15.68
2014-08-22T06:04:29.704Z,15.66
2014-08-22T06:05:34.394Z,15.9
2014-08-22T06:06:39.068Z,15.83
2014-08-22T06:07:44.053Z,15.67
2014-08-22T06:08:48.728Z,15.63
2014-08-22T06:09:53.418Z,15.66
2014-08-22T06:10:58.091Z,16.04
2014-08-22T06:12:02.781Z,16.2
2014-08-22T06:13:07.455Z,15.88
2014-08-22T06:14:12.129Z,16.05
2014-08-22T06:15:16.817Z,15.66
2014-08-22T06:16:21.789Z,15.99
2014-08-22T06:17:26.479Z,16.2
2014-08-22T06:18:31.152Z,16.16
2014-08-22T06:19:36.123Z,16.56
2014-08-22T06:20:40.813Z,16.39
2014-08-22T06:21:45.783Z,16.26
2014-08-22T06:22:50.473Z,16.2
2014-08-22T06:23:55.444Z,16.33
2014-08-22T06:25:00.430Z,16.68
2014-08-22T06:26:05.104Z,16.61
2014-08-22T06:27:10.091Z,16.58
2014-08-22T06:28:14.764Z,16.42
2014-08-22T06:29:19.752Z,16.41
2014-08-22T06:30:24.722Z,16.37
2014-08-22T06:31:29.708Z,16.32
2014-08-22T06:32:34.695Z,16.5
2014-08-22T06:33:39.368Z,16.47
2014-08-22T06:34:44.058Z,16.47
2014-08-22T06:35:48.732Z,16.66
2014-08-22T06:36:53.720Z,16.67
2014-08-22T06:37:58.440Z,16.72
2014-08-22T06:39:03.426Z,16.5
2014-08-22T06:40:08.101Z,16.32
2014-08-22T06:41:13.086Z,16.54
2014-08-22T06:42:18.057Z,16.62
2014-08-22T06:43:22.747Z,16.52
2014-08-22T06:44:27.421Z,16.42
2014-08-22T06:45:32.408Z,16.59
2014-08-22T06:46:37.081Z,16.61
2014-08-22T06:47:42.052Z,16.57
2014-08-22T06:48:46.053Z,16.8
2014-08-22T06:49:50.728Z,16.64
2014-08-22T06:50:55.417Z,16.38
2014-08-22T06:52:00.091Z,16.31
2014-08-22T06:53:04.781Z,16.5
2014-08-22T06:54:09.455Z,16.54
2014-08-22T06:55:14.129Z,16.19
2014-08-22T06:56:18.818Z,16.45
2014-08-22T06:57:23.492Z,16.78
2014-08-22T06:58:28.167Z,16.59
2014-08-22T06:59:33.152Z,16.69
2014-08-22T07:00:37.828Z,16.8
2014-08-22T07:01:42.518Z,17.08
2014-08-22T07:02:47.192Z,17.24
2014-08-22T07:03:51.865Z,17.14
2014-08-22T07:04:56.555Z,17.24
2014-08-22T07:06:01.229Z,17.05
2014-08-22T07:07:06.215Z,16.78
2014-08-22T07:08:10.920Z,16.67
2014-08-22T07:09:15.595Z,16.89
2014-08-22T07:10:20.285Z,16.96
2014-08-22T07:11:24.974Z,16.82
2014-08-22T07:12:29.961Z,16.8
2014-08-22T07:13:34.634Z,16.8
2014-08-22T07:14:39.308Z,16.95
2014-08-22T07:15:43.998Z,16.94
2014-08-22T07:16:48.984Z,16.93
2014-08-22T07:17:53.955Z,16.73
2014-08-22T07:18:58.660Z,17.02
2014-08-22T07:20:03.334Z,16.9
2014-08-22T07:21:08.023Z,16.99
2014-08-22T07:22:12.696Z,17.16
2014-08-22T07:23:17.371Z,16.99
2014-08-22T07:24:22.061Z,17.1
2014-08-22T07:25:27.031Z,17.05
2014-08-22T07:26:31.705Z,17.15
2014-08-22T07:27:36.396Z,17.31
2014-08-22T07:28:41.069Z,17.3
2014-08-22T07:29:45.758Z,17.34
2014-08-22T07:30:50.729Z,17.33
2014-08-22T07:31:55.418Z,17.44
2014-08-22T07:33:00.389Z,17.47
2014-08-22T07:34:05.376Z,17.47
2014-08-22T07:35:10.049Z,17.6
2014-08-22T07:36:15.036Z,17.6
2014-08-22T07:37:19.711Z,17.53
2014-08-22T07:38:24.385Z,17.71
2014-08-22T07:39:29.073Z,17.76
2014-08-22T07:40:33.748Z,17.86
2014-08-22T07:41:38.437Z,18.02
2014-08-22T07:42:43.110Z,17.92
2014-08-22T07:43:47.801Z,17.75
2014-08-22T07:44:52.771Z,17.81
2014-08-22T07:45:57.460Z,17.84
2014-08-22T07:47:02.447Z,17.91
2014-08-22T07:48:07.121Z,17.81
2014-08-22T07:49:12.107Z,18.16
2014-08-22T07:50:16.782Z,18.22
2014-08-22T07:51:21.770Z,18.29
2014-08-22T07:52:26.444Z,18.38
2014-08-22T07:53:31.430Z,18.24
2014-08-22T07:54:36.417Z,18.12
2014-08-22T07:55:41.386Z,18.38
2014-08-22T07:56:46.091Z,18.54
2014-08-22T07:57:50.765Z,18.58
2014-08-22T07:58:55.456Z,18.68
2014-08-22T08:00:00.130Z,18.74
2014-08-22T08:01:04.819Z,18.72
2014-08-22T08:02:09.806Z,18.76
2014-08-22T08:03:14.479Z,19.01
2014-08-22T08:04:19.169Z,18.94
2014-08-22T08:05:23.843Z,18.96
2014-08-22T08:06:28.531Z,19.12
2014-08-22T08:07:33.519Z,19.1
2014-08-22T08:08:38.489Z,19.34
2014-08-22T08:09:43.179Z,19.58
2014-08-22T08:10:47.853Z,19.48
2014-08-22T08:11:52.542Z,19.45
2014-08-22T08:12:57.216Z,19.57
2014-08-22T08:14:01.906Z,19.65
2014-08-22T08:15:06.876Z,19.74
2014-08-22T08:16:11.567Z,19.84
2014-08-22T08:17:16.240Z,20
2014-08-22T08:18:20.914Z,19.92
2014-08-22T08:19:25.603Z,19.73
2014-08-22T08:20:30.590Z,19.93
2014-08-22T08:21:35.279Z,19.64
2014-08-22T08:22:40.251Z,19.6
2014-08-22T08:23:45.236Z,20.09
2014-08-22T08:24:49.926Z,20.02
2014-08-22T08:25:54.896Z,20.15
2014-08-22T08:26:59.884Z,19.86
2014-08-22T08:28:04.558Z,20.11
2014-08-22T08:29:09.247Z,20.4
2014-08-22T08:30:13.921Z,20.42
2014-08-22T08:31:18.611Z,20.32
2014-08-22T08:32:23.581Z,20.18
2014-08-22T08:33:28.270Z,20.04
2014-08-22T08:34:32.945Z,20.3
2014-08-22T08:35:37.931Z,20.32
2014-08-22T08:36:42.917Z,20.39
2014-08-22T08:37:47.592Z,20.32
2014-08-22T08:38:52.281Z,20.53
2014-08-22T08:39:57.252Z,20.19
2014-08-22T08:41:01.941Z,20.12
2014-08-22T08:42:06.631Z,20.69
2014-08-22T08:43:11.602Z,20.9
2014-08-22T08:44:16.588Z,20.89
2014-08-22T08:45:21.263Z,20.92
2014-08-22T08:46:25.951Z,20.97
2014-08-22T08:47:30.627Z,21.05
2014-08-22T08:48:35.341Z,20.84
2014-08-22T08:49:40.069Z,20.34
2014-08-22T08:50:44.785Z,20.39
2014-08-22T08:51:49.808Z,20.75
2014-08-22T08:52:54.524Z,20.81
2014-08-22T08:53:59.229Z,20.86
2014-08-22T08:55:03.918Z,20.9
2014-08-22T08:56:08.637Z,20.7
2014-08-22T08:57:12.654Z,20.66
2014-08-22T08:58:17.355Z,20.54
2014-08-22T08:59:22.051Z,20.13
2014-08-22T09:00:26.745Z,20.07
2014-08-22T09:01:31.722Z,20.51
2014-08-22T09:02:36.415Z,20.89
2014-08-22T09:03:41.406Z,20.74
2014-08-22T09:04:46.082Z,20.9
2014-08-22T09:05:50.773Z,20.96
2014-08-22T09:06:55.448Z,20.88
2014-08-22T09:08:00.436Z,20.41
2014-08-22T09:09:05.112Z,20.03
2014-08-22T09:10:09.801Z,20.64
2014-08-22T09:11:14.491Z,20.8
2014-08-22T09:12:19.167Z,20.43
2014-08-22T09:13:23.841Z,20.2
2014-08-22T09:14:28.531Z,20.43
2014-08-22T09:15:33.222Z,20.61
2014-08-22T09:16:37.895Z,20.58
2014-08-22T09:17:42.585Z,20.32
2014-08-22T09:18:47.276Z,20.73
2014-08-22T09:19:51.950Z,20.92
2014-08-22T09:20:56.935Z,21.14
2014-08-22T09:22:01.610Z,20.88
2014-08-22T09:23:06.298Z,20.83
2014-08-22T09:24:10.973Z,21.1
2014-08-22T09:25:15.960Z,21.23
2014-08-22T09:26:20.649Z,21.34
2014-08-22T09:27:25.323Z,21.17
2014-08-22T09:28:30.028Z,21.18
2014-08-22T09:29:34.702Z,21.53
2014-08-22T09:30:39.392Z,21.52
2014-08-22T09:31:44.362Z,21.72
2014-08-22T09:32:49.052Z,21.93
2014-08-22T09:33:54.038Z,21.91
2014-08-22T09:34:58.712Z,21.96
2014-08-22T09:36:03.403Z,22.1
2014-08-22T09:37:08.388Z,22.2
2014-08-22T09:38:13.359Z,22.09
2014-08-22T09:39:18.049Z,22.12
2014-08-22T09:40:22.754Z,21.54
2014-08-22T09:41:27.427Z,21.84
2014-08-22T09:42:32.118Z,21.47
2014-08-22T09:43:36.807Z,21.64
2014-08-22T09:44:41.481Z,21.52
2014-08-22T09:45:46.170Z,21.88
2014-08-22T09:46:51.157Z,22.24
2014-08-22T09:47:55.846Z,22.34
2014-08-22T09:49:00.519Z,22.34
2014-08-22T09:50:05.210Z,22.29
2014-08-22T09:51:09.884Z,22.47
2014-08-22T09:52:14.572Z,22.51
2014-08-22T09:53:19.263Z,22.42
2014-08-22T09:54:23.952Z,22.19
2014-08-22T09:55:28.626Z,22.22
2014-08-22T09:56:33.612Z,22.27
2014-08-22T09:57:38.303Z,22.23
2014-08-22T09:58:42.976Z,22.03
2014-08-22T09:59:47.665Z,22.17
2014-08-22T10:00:52.355Z,22.29
2014-08-22T10:01:57.030Z,22.12
2014-08-22T10:03:01.719Z,22.26
2014-08-22T10:04:06.392Z,22.31
2014-08-22T10:05:11.082Z,22.48
2014-08-22T10:06:16.053Z,22.34
2014-08-22T10:07:21.040Z,22.08
2014-08-22T10:08:25.715Z,22.2
2014-08-22T10:09:30.404Z,21.88
2014-08-22T10:10:35.376Z,21.71
2014-08-22T10:11:40.064Z,21.98
2014-08-22T10:12:44.755Z,22.13
2014-08-22T10:13:49.429Z,22.41
2014-08-22T10:14:54.118Z,22.26
2014-08-22T10:15:59.089Z,22.5
2014-08-22T10:17:03.777Z,22.5
2014-08-22T10:18:08.764Z,22.45
2014-08-22T10:19:13.736Z,22.58
2014-08-22T10:20:18.722Z,22.67
2014-08-22T10:21:23.707Z,22.8
2014-08-22T10:22:28.382Z,22.82
2014-08-22T10:23:33.072Z,22.94
2014-08-22T10:24:37.760Z,23.1
2014-08-22T10:25:42.451Z,23.38
2014-08-22T10:26:47.140Z,22.92
2014-08-22T10:27:51.814Z,22.96
2014-08-22T10:28:56.504Z,23.12
2014-08-22T10:30:01.474Z,23.19
2014-08-22T10:31:06.164Z,23.26
2014-08-22T10:32:11.150Z,23.36
2014-08-22T10:33:15.840Z,23.22
2014-08-22T10:34:20.810Z,22.99
2014-08-22T10:35:25.797Z,22.76
2014-08-22T10:36:30.487Z,22.38
2014-08-22T10:37:35.160Z,22.9
2014-08-22T10:38:40.148Z,23.14
2014-08-22T10:39:44.836Z,23.1
2014-08-22T10:40:49.511Z,22.91
2014-08-22T10:41:54.215Z,22.81
2014-08-22T10:42:58.890Z,22.89
2014-08-22T10:44:03.875Z,22.75
2014-08-22T10:45:08.566Z,22.73
2014-08-22T10:46:13.240Z,22.62
2014-08-22T10:47:17.929Z,22.52
2014-08-22T10:48:22.619Z,22.54
2014-08-22T10:49:27.293Z,22.8
2014-08-22T10:50:32.278Z,22.8
2014-08-22T10:51:36.953Z,22.42
2014-08-22T10:52:41.939Z,22.51
2014-08-22T10:53:46.629Z,22.77
2014-08-22T10:54:51.599Z,22.7
2014-08-22T10:55:56.586Z,22.58
2014-08-22T10:57:01.275Z,22.74
2014-08-22T10:58:05.965Z,22.86
2014-08-22T10:59:10.639Z,22.89
2014-08-22T11:00:15.328Z,22.7
2014-08-22T11:01:20.315Z,22.7
2014-08-22T11:02:25.004Z,22.64
2014-08-22T11:03:29.678Z,22.67
2014-08-22T11:04:34.666Z,22.46
2014-08-22T11:05:39.356Z,22.52
2014-08-22T11:06:44.046Z,22.44
2014-08-22T11:07:48.719Z,22.28
2014-08-22T11:08:53.409Z,22.32
2014-08-22T11:09:58.129Z,22.33
2014-08-22T11:11:03.101Z,22.26
2014-08-22T11:12:07.791Z,22.28
2014-08-22T11:13:12.465Z,22.15
2014-08-22T11:14:17.451Z,22.26
2014-08-22T11:15:22.125Z,22.28
2014-08-22T11:16:26.814Z,22.42
2014-08-22T11:17:31.504Z,22.52
2014-08-22T11:18:36.178Z,22.39
2014-08-22T11:19:40.867Z,22.38
2014-08-22T11:20:45.541Z,22.27
2014-08-22T11:21:50.231Z,22.18
2014-08-22T11:22:55.218Z,22.12
2014-08-22T11:23:59.891Z,22.25
2014-08-22T11:25:04.877Z,22.11
2014-08-22T11:26:09.864Z,22.17
2014-08-22T11:27:14.538Z,22.09
2014-08-22T11:28:19.227Z,22.47
2014-08-22T11:29:23.901Z,22.2
2014-08-22T11:30:28.591Z,22.36
2014-08-22T11:31:33.280Z,22.24
2014-08-22T11:32:37.954Z,22.34
2014-08-22T11:33:42.644Z,22.53
2014-08-22T11:34:47.334Z,22.36
2014-08-22T11:35:52.023Z,22.63
2014-08-22T11:36:56.696Z,22.44
2014-08-22T11:38:01.386Z,22.36
2014-08-22T11:39:06.373Z,22.57
2014-08-22T11:40:11.061Z,22.64
2014-08-22T11:41:15.736Z,22.82
2014-08-22T11:42:20.723Z,23
2014-08-22T11:43:25.412Z,22.84
2014-08-22T11:44:30.101Z,22.84
2014-08-22T11:45:34.776Z,22.85
2014-08-22T11:46:39.465Z,22.92
2014-08-22T11:47:44.451Z,22.94
2014-08-22T11:48:49.125Z,22.82
2014-08-22T11:49:53.815Z,22.84
2014-08-22T11:50:58.801Z,22.98
2014-08-22T11:52:03.475Z,22.94
2014-08-22T11:53:08.165Z,23.07
2014-08-22T11:54:12.839Z,23.28
2014-08-22T11:55:17.825Z,23.4
2014-08-22T11:56:22.811Z,23.48
2014-08-22T11:57:27.485Z,23.82
2014-08-22T11:58:32.176Z,23.87
2014-08-22T11:59:37.161Z,24.1
2014-08-22T12:00:42.133Z,24.15
2014-08-22T12:01:46.821Z,24.3
2014-08-22T12:02:51.496Z,24.33
2014-08-22T12:03:56.186Z,24.24
2014-08-22T12:05:00.875Z,24.24
2014-08-22T12:06:05.565Z,24.02
2014-08-22T12:07:10.551Z,23.98
2014-08-22T12:08:15.536Z,24.01
2014-08-22T12:09:20.228Z,23.89
2014-08-22T12:10:24.902Z,23.78
2014-08-22T12:11:29.592Z,23.83
2014-08-22T12:12:34.281Z,24
2014-08-22T12:13:39.267Z,24.23
2014-08-22T12:14:44.253Z,24.08
2014-08-22T12:15:48.944Z,24.16
2014-08-22T12:16:53.617Z,24.09
2014-08-22T12:17:58.307Z,24.11
2014-08-22T12:19:03.293Z,24.08
2014-08-22T12:20:07.983Z,24.02
2014-08-22T12:21:12.672Z,23.94
2014-08-22T12:22:17.347Z,23.85
2014-08-22T12:23:22.036Z,23.82
2014-08-22T12:24:26.726Z,23.82
2014-08-22T12:25:31.399Z,23.62
2014-08-22T12:26:36.090Z,23.68
2014-08-22T12:27:40.794Z,23.77
2014-08-22T12:28:45.484Z,23.76
2014-08-22T12:29:50.157Z,23.65
2014-08-22T12:30:54.847Z,23.83
2014-08-22T12:31:59.521Z,23.98
2014-08-22T12:33:04.508Z,24.23
2014-08-22T12:34:09.198Z,24.49
2014-08-22T12:35:13.871Z,24.48
2014-08-22T12:36:18.858Z,24.55
2014-08-22T12:37:23.547Z,24.58
2014-08-22T12:38:28.220Z,24.45
2014-08-22T12:39:32.910Z,24.32
2014-08-22T12:40:37.896Z,24.42
2014-08-22T12:41:42.586Z,24.3
2014-08-22T12:42:47.261Z,24.53
2014-08-22T12:43:51.949Z,24.52
2014-08-22T12:44:56.624Z,24.38
2014-08-22T12:46:01.313Z,24.39
2014-08-22T12:47:06.003Z,24.21
2014-08-22T12:48:10.988Z,24.44
2014-08-22T12:49:15.977Z,24.34
2014-08-22T12:50:20.651Z,24.28
2014-08-22T12:51:25.340Z,24.31
2014-08-22T12:52:30.029Z,23.97
2014-08-22T12:53:34.719Z,23.73
2014-08-22T12:54:39.408Z,23.64
2014-08-22T12:55:44.081Z,23.26
2014-08-22T12:56:48.771Z,23.32
2014-08-22T12:57:53.758Z,23.39
2014-08-22T12:58:58.462Z,23.14
2014-08-22T13:00:03.153Z,22.95
2014-08-22T13:01:07.842Z,23.08
2014-08-22T13:02:12.516Z,23.26
2014-08-22T13:03:17.503Z,23.35
2014-08-22T13:04:22.192Z,23.39
2014-08-22T13:05:27.179Z,23.58
2014-08-22T13:06:32.149Z,23.59
2014-08-22T13:07:37.136Z,23.61
2014-08-22T13:08:41.825Z,23.74
2014-08-22T13:09:46.499Z,23.75
2014-08-22T13:10:51.485Z,23.78
2014-08-22T13:11:56.160Z,23.67
2014-08-22T13:13:00.850Z,23.63
2014-08-22T13:14:05.539Z,23.68
2014-08-22T13:15:10.213Z,23.76
2014-08-22T13:16:15.200Z,23.58
2014-08-22T13:17:19.873Z,23.52
2014-08-22T13:18:24.563Z,23.49
2014-08-22T13:19:29.252Z,23.36
2014-08-22T13:20:34.239Z,23.36
2014-08-22T13:21:38.913Z,23.32
2014-08-22T13:22:43.602Z,23.26
2014-08-22T13:23:48.276Z,23.33
2014-08-22T13:24:53.262Z,23.23
2014-08-22T13:25:58.249Z,23.25
2014-08-22T13:27:02.938Z,23.42
2014-08-22T13:28:07.629Z,23.55
2014-08-22T13:29:12.615Z,23.5
2014-08-22T13:30:17.288Z,23.55
2014-08-22T13:31:21.979Z,23.52
2014-08-22T13:32:26.668Z,23.68
2014-08-22T13:33:31.358Z,23.74
2014-08-22T13:34:36.047Z,23.83
2014-08-22T13:35:40.737Z,23.81
2014-08-22T13:36:45.426Z,23.6
2014-08-22T13:37:50.100Z,23.45
2014-08-22T13:38:54.788Z,23.55
2014-08-22T13:39:59.776Z,23.41
2014-08-22T13:41:04.465Z,23.68
2014-08-22T13:42:09.452Z,23.75
2014-08-22T13:43:14.126Z,23.96
2014-08-22T13:44:18.816Z,24.08
2014-08-22T13:45:23.506Z,24.11
2014-08-22T13:46:28.210Z,24.04
2014-08-22T13:47:32.884Z,23.95
2014-08-22T13:48:37.871Z,23.78
2014-08-22T13:49:42.544Z,23.65
2014-08-22T13:50:47.235Z,23.8
2014-08-22T13:51:51.925Z,23.8
2014-08-22T13:52:56.599Z,23.92
2014-08-22T13:54:01.288Z,23.95
2014-08-22T13:55:05.979Z,23.76
2014-08-22T13:56:10.652Z,23.92
2014-08-22T13:57:15.342Z,24.1
2014-08-22T13:58:20.015Z,24.21